sensor_id;sensor_type;location;lat;lon;timestamp;P1;durP1;ratioP1;P2;durP2;ratioP2
49460;SDS011;35355;49.198;-0.368;2024-03-08T00:00:12;36.33;;;21.02;;
49460;SDS011;35355;49.198;-0.368;2024-03-08T00:02:39;38.70;;;21.15;;
49460;SDS011;35355;49.198;-0.368;2024-03-08T00:05:05;37.88;;;21.58;;
49460;SDS011;35355;49.198;-0.368;2024-03-08T00:07:31;42.88;;;21.98;;
49460;SDS011;35355;49.198;-0.368;2024-03-08T00:09:57;36.30;;;21.45;;
49460;SDS011;35355;49.198;-0.368;2024-03-08T00:12:22;39.95;;;21.55;;
49460;SDS011;35355;49.198;-0.368;2024-03-08T00:14:48;34.38;;;20.20;;
49460;SDS011;35355;49.198;-0.368;2024-03-08T00:17:14;40.33;;;20.85;;
49460;SDS011;35355;49.198;-0.368;2024-03-08T00:19:40;34.25;;;19.75;;
49460;SDS011;35355;49.198;-0.368;2024-03-08T00:22:06;39.10;;;21.83;;
49460;SDS011;35355;49.198;-0.368;2024-03-08T00:24:32;36.33;;;21.33;;
49460;SDS011;35355;49.198;-0.368;2024-03-08T00:26:58;34.22;;;20.98;;
49460;SDS011;35355;49.198;-0.368;2024-03-08T00:29:23;42.72;;;21.70;;
49460;SDS011;35355;49.198;-0.368;2024-03-08T00:31:49;41.10;;;23.40;;
49460;SDS011;35355;49.198;-0.368;2024-03-08T00:34:14;38.40;;;21.08;;
49460;SDS011;35355;49.198;-0.368;2024-03-08T00:36:40;41.63;;;23.38;;
49460;SDS011;35355;49.198;-0.368;2024-03-08T00:39:06;44.80;;;24.15;;
49460;SDS011;35355;49.198;-0.368;2024-03-08T00:41:32;49.85;;;26.55;;
49460;SDS011;35355;49.198;-0.368;2024-03-08T00:43:58;47.00;;;25.80;;
49460;SDS011;35355;49.198;-0.368;2024-03-08T00:46:23;54.97;;;29.95;;
49460;SDS011;35355;49.198;-0.368;2024-03-08T00:48:49;65.97;;;33.20;;
49460;SDS011;35355;49.198;-0.368;2024-03-08T00:51:14;57.80;;;34.30;;
49460;SDS011;35355;49.198;-0.368;2024-03-08T00:53:42;56.65;;;32.25;;
49460;SDS011;35355;49.198;-0.368;2024-03-08T00:56:08;50.00;;;27.63;;
49460;SDS011;35355;49.198;-0.368;2024-03-08T00:58:36;45.45;;;24.65;;
49460;SDS011;35355;49.198;-0.368;2024-03-08T01:01:02;46.75;;;25.38;;
49460;SDS011;35355;49.198;-0.368;2024-03-08T01:03:28;46.15;;;24.23;;
49460;SDS011;35355;49.198;-0.368;2024-03-08T01:05:56;41.50;;;23.08;;
49460;SDS011;35355;49.198;-0.368;2024-03-08T01:08:22;42.08;;;23.95;;
49460;SDS011;35355;49.198;-0.368;2024-03-08T01:10:48;45.70;;;24.02;;
49460;SDS011;35355;49.198;-0.368;2024-03-08T01:13:15;42.72;;;22.65;;
49460;SDS011;35355;49.198;-0.368;2024-03-08T01:15:41;42.75;;;21.63;;
49460;SDS011;35355;49.198;-0.368;2024-03-08T01:18:06;45.00;;;22.52;;
49460;SDS011;35355;49.198;-0.368;2024-03-08T01:20:32;40.90;;;22.77;;
49460;SDS011;35355;49.198;-0.368;2024-03-08T01:22:57;43.47;;;22.50;;
49460;SDS011;35355;49.198;-0.368;2024-03-08T01:25:22;44.03;;;23.15;;
49460;SDS011;35355;49.198;-0.368;2024-03-08T01:27:48;40.10;;;23.35;;
49460;SDS011;35355;49.198;-0.368;2024-03-08T01:30:13;39.25;;;22.05;;
49460;SDS011;35355;49.198;-0.368;2024-03-08T01:32:41;41.75;;;22.33;;
49460;SDS011;35355;49.198;-0.368;2024-03-08T01:35:08;45.67;;;24.27;;
49460;SDS011;35355;49.198;-0.368;2024-03-08T01:37:35;41.58;;;22.33;;
49460;SDS011;35355;49.198;-0.368;2024-03-08T01:40:00;38.67;;;21.55;;
49460;SDS011;35355;49.198;-0.368;2024-03-08T01:42:26;40.53;;;22.63;;
49460;SDS011;35355;49.198;-0.368;2024-03-08T01:44:51;40.55;;;23.48;;
49460;SDS011;35355;49.198;-0.368;2024-03-08T01:47:17;40.65;;;22.48;;
49460;SDS011;35355;49.198;-0.368;2024-03-08T01:49:43;43.55;;;23.45;;
49460;SDS011;35355;49.198;-0.368;2024-03-08T01:52:08;41.92;;;23.38;;
49460;SDS011;35355;49.198;-0.368;2024-03-08T01:54:34;43.83;;;23.73;;
49460;SDS011;35355;49.198;-0.368;2024-03-08T01:57:01;43.92;;;24.17;;
49460;SDS011;35355;49.198;-0.368;2024-03-08T01:59:26;43.08;;;23.48;;
49460;SDS011;35355;49.198;-0.368;2024-03-08T02:01:54;41.20;;;23.33;;
49460;SDS011;35355;49.198;-0.368;2024-03-08T02:04:20;45.95;;;24.20;;
49460;SDS011;35355;49.198;-0.368;2024-03-08T02:06:46;43.03;;;22.45;;
49460;SDS011;35355;49.198;-0.368;2024-03-08T02:09:13;38.78;;;22.58;;
49460;SDS011;35355;49.198;-0.368;2024-03-08T02:11:39;38.30;;;21.50;;
49460;SDS011;35355;49.198;-0.368;2024-03-08T02:14:06;43.40;;;22.90;;
49460;SDS011;35355;49.198;-0.368;2024-03-08T02:16:31;40.75;;;21.67;;
49460;SDS011;35355;49.198;-0.368;2024-03-08T02:18:57;42.80;;;22.60;;
49460;SDS011;35355;49.198;-0.368;2024-03-08T02:21:23;37.55;;;22.25;;
49460;SDS011;35355;49.198;-0.368;2024-03-08T02:23:49;40.28;;;22.52;;
49460;SDS011;35355;49.198;-0.368;2024-03-08T02:26:17;43.97;;;22.48;;
49460;SDS011;35355;49.198;-0.368;2024-03-08T02:28:43;40.22;;;23.98;;
49460;SDS011;35355;49.198;-0.368;2024-03-08T02:31:09;34.75;;;21.75;;
49460;SDS011;35355;49.198;-0.368;2024-03-08T02:33:35;40.95;;;22.40;;
49460;SDS011;35355;49.198;-0.368;2024-03-08T02:36:00;39.38;;;22.05;;
49460;SDS011;35355;49.198;-0.368;2024-03-08T02:38:26;37.80;;;22.17;;
49460;SDS011;35355;49.198;-0.368;2024-03-08T02:40:52;35.95;;;20.33;;
49460;SDS011;35355;49.198;-0.368;2024-03-08T02:43:18;43.60;;;22.85;;
49460;SDS011;35355;49.198;-0.368;2024-03-08T02:45:47;36.88;;;22.17;;
49460;SDS011;35355;49.198;-0.368;2024-03-08T02:48:13;37.53;;;21.63;;
49460;SDS011;35355;49.198;-0.368;2024-03-08T02:50:41;38.22;;;21.52;;
49460;SDS011;35355;49.198;-0.368;2024-03-08T02:53:09;36.67;;;21.33;;
49460;SDS011;35355;49.198;-0.368;2024-03-08T02:55:36;36.78;;;20.80;;
49460;SDS011;35355;49.198;-0.368;2024-03-08T02:58:02;39.25;;;21.55;;
49460;SDS011;35355;49.198;-0.368;2024-03-08T03:00:28;38.03;;;22.67;;
49460;SDS011;35355;49.198;-0.368;2024-03-08T03:02:55;41.92;;;21.75;;
49460;SDS011;35355;49.198;-0.368;2024-03-08T03:05:22;40.05;;;22.55;;
49460;SDS011;35355;49.198;-0.368;2024-03-08T03:07:48;38.03;;;21.00;;
49460;SDS011;35355;49.198;-0.368;2024-03-08T03:10:14;39.67;;;21.60;;
49460;SDS011;35355;49.198;-0.368;2024-03-08T03:12:42;41.80;;;22.38;;
49460;SDS011;35355;49.198;-0.368;2024-03-08T03:15:07;43.33;;;21.67;;
49460;SDS011;35355;49.198;-0.368;2024-03-08T03:17:33;37.55;;;21.52;;
49460;SDS011;35355;49.198;-0.368;2024-03-08T03:19:59;38.33;;;21.23;;
49460;SDS011;35355;49.198;-0.368;2024-03-08T03:22:27;37.60;;;21.33;;
49460;SDS011;35355;49.198;-0.368;2024-03-08T03:24:55;38.33;;;21.25;;
49460;SDS011;35355;49.198;-0.368;2024-03-08T03:27:23;36.10;;;20.50;;
49460;SDS011;35355;49.198;-0.368;2024-03-08T03:29:49;37.63;;;22.13;;
49460;SDS011;35355;49.198;-0.368;2024-03-08T03:32:17;40.22;;;21.23;;
49460;SDS011;35355;49.198;-0.368;2024-03-08T03:34:43;40.95;;;21.25;;
49460;SDS011;35355;49.198;-0.368;2024-03-08T03:37:09;38.38;;;21.67;;
49460;SDS011;35355;49.198;-0.368;2024-03-08T03:39:37;38.90;;;20.92;;
49460;SDS011;35355;49.198;-0.368;2024-03-08T03:42:13;39.75;;;21.40;;
49460;SDS011;35355;49.198;-0.368;2024-03-08T03:44:46;37.75;;;22.27;;
49460;SDS011;35355;49.198;-0.368;2024-03-08T03:47:12;41.58;;;21.27;;
49460;SDS011;35355;49.198;-0.368;2024-03-08T03:49:38;35.88;;;20.25;;
49460;SDS011;35355;49.198;-0.368;2024-03-08T03:52:03;36.42;;;20.52;;
49460;SDS011;35355;49.198;-0.368;2024-03-08T03:54:29;36.35;;;21.10;;
49460;SDS011;35355;49.198;-0.368;2024-03-08T03:56:55;37.90;;;21.15;;
49460;SDS011;35355;49.198;-0.368;2024-03-08T03:59:21;40.58;;;19.98;;
49460;SDS011;35355;49.198;-0.368;2024-03-08T04:01:46;39.65;;;20.63;;
49460;SDS011;35355;49.198;-0.368;2024-03-08T04:04:12;40.67;;;21.38;;
49460;SDS011;35355;49.198;-0.368;2024-03-08T04:06:38;35.80;;;22.20;;
49460;SDS011;35355;49.198;-0.368;2024-03-08T04:09:04;38.72;;;21.10;;
49460;SDS011;35355;49.198;-0.368;2024-03-08T04:11:29;33.53;;;20.48;;
49460;SDS011;35355;49.198;-0.368;2024-03-08T04:13:55;37.63;;;20.48;;
49460;SDS011;35355;49.198;-0.368;2024-03-08T04:16:21;36.13;;;20.52;;
49460;SDS011;35355;49.198;-0.368;2024-03-08T04:18:46;36.55;;;20.30;;
49460;SDS011;35355;49.198;-0.368;2024-03-08T04:21:12;36.92;;;20.48;;
49460;SDS011;35355;49.198;-0.368;2024-03-08T04:23:38;36.80;;;20.65;;
49460;SDS011;35355;49.198;-0.368;2024-03-08T04:26:03;41.53;;;22.33;;
49460;SDS011;35355;49.198;-0.368;2024-03-08T04:28:30;36.53;;;20.33;;
49460;SDS011;35355;49.198;-0.368;2024-03-08T04:30:56;34.38;;;19.55;;
49460;SDS011;35355;49.198;-0.368;2024-03-08T04:33:21;36.85;;;20.83;;
49460;SDS011;35355;49.198;-0.368;2024-03-08T04:35:48;32.67;;;19.10;;
49460;SDS011;35355;49.198;-0.368;2024-03-08T04:38:13;37.22;;;20.25;;
49460;SDS011;35355;49.198;-0.368;2024-03-08T04:40:40;35.80;;;19.90;;
49460;SDS011;35355;49.198;-0.368;2024-03-08T04:43:05;36.92;;;19.90;;
49460;SDS011;35355;49.198;-0.368;2024-03-08T04:45:32;41.15;;;21.17;;
49460;SDS011;35355;49.198;-0.368;2024-03-08T04:47:58;33.50;;;19.30;;
49460;SDS011;35355;49.198;-0.368;2024-03-08T04:50:24;38.63;;;21.33;;
49460;SDS011;35355;49.198;-0.368;2024-03-08T04:52:49;38.40;;;20.42;;
49460;SDS011;35355;49.198;-0.368;2024-03-08T04:55:14;35.33;;;20.30;;
49460;SDS011;35355;49.198;-0.368;2024-03-08T04:57:40;38.65;;;20.38;;
49460;SDS011;35355;49.198;-0.368;2024-03-08T05:00:07;36.45;;;20.95;;
49460;SDS011;35355;49.198;-0.368;2024-03-08T05:02:36;40.58;;;21.00;;
49460;SDS011;35355;49.198;-0.368;2024-03-08T05:05:07;34.70;;;20.55;;
49460;SDS011;35355;49.198;-0.368;2024-03-08T05:07:36;34.47;;;19.92;;
49460;SDS011;35355;49.198;-0.368;2024-03-08T05:10:02;36.60;;;20.80;;
49460;SDS011;35355;49.198;-0.368;2024-03-08T05:12:28;40.15;;;20.98;;
49460;SDS011;35355;49.198;-0.368;2024-03-08T05:14:53;38.75;;;20.60;;
49460;SDS011;35355;49.198;-0.368;2024-03-08T05:17:19;42.53;;;21.85;;
49460;SDS011;35355;49.198;-0.368;2024-03-08T05:19:45;37.20;;;20.92;;
49460;SDS011;35355;49.198;-0.368;2024-03-08T05:22:10;38.85;;;20.85;;
49460;SDS011;35355;49.198;-0.368;2024-03-08T05:24:36;38.30;;;21.95;;
49460;SDS011;35355;49.198;-0.368;2024-03-08T05:27:01;37.03;;;20.52;;
49460;SDS011;35355;49.198;-0.368;2024-03-08T05:29:28;37.20;;;21.17;;
49460;SDS011;35355;49.198;-0.368;2024-03-08T05:31:54;36.58;;;19.65;;
49460;SDS011;35355;49.198;-0.368;2024-03-08T05:34:20;40.42;;;20.60;;
49460;SDS011;35355;49.198;-0.368;2024-03-08T05:36:46;37.55;;;20.05;;
49460;SDS011;35355;49.198;-0.368;2024-03-08T05:39:12;33.85;;;20.23;;
49460;SDS011;35355;49.198;-0.368;2024-03-08T05:41:38;36.03;;;20.58;;
49460;SDS011;35355;49.198;-0.368;2024-03-08T05:44:05;37.67;;;21.50;;
49460;SDS011;35355;49.198;-0.368;2024-03-08T05:46:31;39.58;;;22.58;;
49460;SDS011;35355;49.198;-0.368;2024-03-08T05:48:56;35.90;;;20.05;;
49460;SDS011;35355;49.198;-0.368;2024-03-08T05:51:23;35.50;;;20.48;;
49460;SDS011;35355;49.198;-0.368;2024-03-08T05:53:51;37.17;;;20.48;;
49460;SDS011;35355;49.198;-0.368;2024-03-08T05:56:18;40.08;;;21.02;;
49460;SDS011;35355;49.198;-0.368;2024-03-08T05:58:43;38.15;;;20.60;;
49460;SDS011;35355;49.198;-0.368;2024-03-08T06:01:09;37.70;;;20.17;;
49460;SDS011;35355;49.198;-0.368;2024-03-08T06:03:37;37.40;;;20.98;;
49460;SDS011;35355;49.198;-0.368;2024-03-08T06:06:09;42.53;;;20.92;;
49460;SDS011;35355;49.198;-0.368;2024-03-08T06:08:38;42.58;;;22.08;;
49460;SDS011;35355;49.198;-0.368;2024-03-08T06:11:03;39.70;;;22.50;;
49460;SDS011;35355;49.198;-0.368;2024-03-08T06:13:31;34.42;;;20.10;;
49460;SDS011;35355;49.198;-0.368;2024-03-08T06:15:56;41.35;;;21.50;;
49460;SDS011;35355;49.198;-0.368;2024-03-08T06:18:22;39.88;;;23.58;;
49460;SDS011;35355;49.198;-0.368;2024-03-08T06:20:47;34.97;;;19.70;;
49460;SDS011;35355;49.198;-0.368;2024-03-08T06:23:13;41.35;;;22.25;;
49460;SDS011;35355;49.198;-0.368;2024-03-08T06:25:42;40.67;;;22.10;;
49460;SDS011;35355;49.198;-0.368;2024-03-08T06:28:11;35.47;;;20.67;;
49460;SDS011;35355;49.198;-0.368;2024-03-08T06:30:36;44.45;;;22.48;;
49460;SDS011;35355;49.198;-0.368;2024-03-08T06:33:01;45.50;;;22.70;;
49460;SDS011;35355;49.198;-0.368;2024-03-08T06:35:27;38.83;;;21.25;;
49460;SDS011;35355;49.198;-0.368;2024-03-08T06:37:53;39.75;;;20.80;;
49460;SDS011;35355;49.198;-0.368;2024-03-08T06:40:18;37.92;;;20.92;;
49460;SDS011;35355;49.198;-0.368;2024-03-08T06:42:43;37.75;;;20.90;;
49460;SDS011;35355;49.198;-0.368;2024-03-08T06:45:09;36.05;;;20.90;;
49460;SDS011;35355;49.198;-0.368;2024-03-08T06:47:35;41.28;;;21.73;;
49460;SDS011;35355;49.198;-0.368;2024-03-08T06:50:02;41.25;;;21.33;;
49460;SDS011;35355;49.198;-0.368;2024-03-08T06:52:27;47.00;;;22.05;;
49460;SDS011;35355;49.198;-0.368;2024-03-08T06:54:53;40.72;;;20.90;;
49460;SDS011;35355;49.198;-0.368;2024-03-08T06:57:18;36.50;;;19.95;;
49460;SDS011;35355;49.198;-0.368;2024-03-08T06:59:47;39.58;;;21.17;;
49460;SDS011;35355;49.198;-0.368;2024-03-08T07:02:13;37.70;;;20.42;;
49460;SDS011;35355;49.198;-0.368;2024-03-08T07:04:38;39.17;;;20.15;;
49460;SDS011;35355;49.198;-0.368;2024-03-08T07:07:04;39.30;;;20.58;;
49460;SDS011;35355;49.198;-0.368;2024-03-08T07:09:30;42.17;;;22.17;;
49460;SDS011;35355;49.198;-0.368;2024-03-08T07:11:55;39.50;;;22.15;;
49460;SDS011;35355;49.198;-0.368;2024-03-08T07:14:21;38.38;;;20.73;;
49460;SDS011;35355;49.198;-0.368;2024-03-08T07:16:47;38.22;;;21.40;;
49460;SDS011;35355;49.198;-0.368;2024-03-08T07:19:13;38.15;;;21.10;;
49460;SDS011;35355;49.198;-0.368;2024-03-08T07:21:38;39.50;;;19.88;;
49460;SDS011;35355;49.198;-0.368;2024-03-08T07:24:04;40.55;;;21.92;;
49460;SDS011;35355;49.198;-0.368;2024-03-08T07:26:42;38.70;;;20.50;;
49460;SDS011;35355;49.198;-0.368;2024-03-08T07:29:08;38.17;;;20.38;;
49460;SDS011;35355;49.198;-0.368;2024-03-08T07:31:33;39.28;;;20.38;;
49460;SDS011;35355;49.198;-0.368;2024-03-08T07:34:17;47.85;;;21.20;;
49460;SDS011;35355;49.198;-0.368;2024-03-08T07:36:43;36.72;;;20.83;;
49460;SDS011;35355;49.198;-0.368;2024-03-08T07:39:08;40.70;;;19.58;;
49460;SDS011;35355;49.198;-0.368;2024-03-08T07:41:37;36.67;;;20.17;;
49460;SDS011;35355;49.198;-0.368;2024-03-08T07:44:05;38.10;;;21.02;;
49460;SDS011;35355;49.198;-0.368;2024-03-08T07:46:31;41.95;;;20.88;;
49460;SDS011;35355;49.198;-0.368;2024-03-08T07:48:56;39.33;;;21.65;;
49460;SDS011;35355;49.198;-0.368;2024-03-08T07:51:21;40.13;;;22.10;;
49460;SDS011;35355;49.198;-0.368;2024-03-08T07:53:47;36.40;;;19.92;;
49460;SDS011;35355;49.198;-0.368;2024-03-08T07:56:12;40.03;;;20.88;;
49460;SDS011;35355;49.198;-0.368;2024-03-08T07:58:39;39.08;;;20.52;;
49460;SDS011;35355;49.198;-0.368;2024-03-08T08:01:05;35.65;;;19.75;;
49460;SDS011;35355;49.198;-0.368;2024-03-08T08:03:31;35.72;;;20.17;;
49460;SDS011;35355;49.198;-0.368;2024-03-08T08:05:57;38.90;;;20.10;;
49460;SDS011;35355;49.198;-0.368;2024-03-08T08:08:22;39.97;;;20.25;;
49460;SDS011;35355;49.198;-0.368;2024-03-08T08:10:48;41.25;;;21.58;;
49460;SDS011;35355;49.198;-0.368;2024-03-08T08:13:14;40.15;;;20.70;;
49460;SDS011;35355;49.198;-0.368;2024-03-08T08:15:40;39.05;;;21.23;;
49460;SDS011;35355;49.198;-0.368;2024-03-08T08:18:06;35.85;;;20.73;;
49460;SDS011;35355;49.198;-0.368;2024-03-08T08:20:31;40.55;;;21.90;;
49460;SDS011;35355;49.198;-0.368;2024-03-08T08:22:56;42.22;;;21.33;;
49460;SDS011;35355;49.198;-0.368;2024-03-08T08:25:24;41.92;;;20.40;;
49460;SDS011;35355;49.198;-0.368;2024-03-08T08:27:49;36.67;;;21.17;;
49460;SDS011;35355;49.198;-0.368;2024-03-08T08:30:15;44.28;;;21.83;;
49460;SDS011;35355;49.198;-0.368;2024-03-08T08:32:40;39.55;;;21.50;;
49460;SDS011;35355;49.198;-0.368;2024-03-08T08:35:07;37.88;;;21.35;;
49460;SDS011;35355;49.198;-0.368;2024-03-08T08:37:38;38.47;;;20.65;;
49460;SDS011;35355;49.198;-0.368;2024-03-08T08:40:04;39.08;;;20.10;;
49460;SDS011;35355;49.198;-0.368;2024-03-08T08:42:33;42.25;;;22.55;;
49460;SDS011;35355;49.198;-0.368;2024-03-08T08:44:59;38.67;;;21.67;;
49460;SDS011;35355;49.198;-0.368;2024-03-08T08:47:24;39.13;;;20.77;;
49460;SDS011;35355;49.198;-0.368;2024-03-08T08:49:49;35.25;;;19.13;;
49460;SDS011;35355;49.198;-0.368;2024-03-08T08:52:15;40.45;;;20.15;;
49460;SDS011;35355;49.198;-0.368;2024-03-08T08:54:41;40.65;;;21.05;;
49460;SDS011;35355;49.198;-0.368;2024-03-08T08:57:07;35.85;;;20.42;;
49460;SDS011;35355;49.198;-0.368;2024-03-08T08:59:33;42.08;;;21.80;;
49460;SDS011;35355;49.198;-0.368;2024-03-08T09:02:01;36.22;;;19.65;;
49460;SDS011;35355;49.198;-0.368;2024-03-08T09:04:26;39.58;;;19.67;;
49460;SDS011;35355;49.198;-0.368;2024-03-08T09:06:52;33.75;;;19.02;;
49460;SDS011;35355;49.198;-0.368;2024-03-08T09:09:18;36.85;;;20.05;;
49460;SDS011;35355;49.198;-0.368;2024-03-08T09:11:44;34.45;;;19.75;;
49460;SDS011;35355;49.198;-0.368;2024-03-08T09:14:11;37.85;;;19.60;;
49460;SDS011;35355;49.198;-0.368;2024-03-08T09:16:37;36.17;;;19.23;;
49460;SDS011;35355;49.198;-0.368;2024-03-08T09:19:02;37.88;;;19.08;;
49460;SDS011;35355;49.198;-0.368;2024-03-08T09:21:27;38.25;;;18.73;;
49460;SDS011;35355;49.198;-0.368;2024-03-08T09:23:53;35.63;;;19.95;;
49460;SDS011;35355;49.198;-0.368;2024-03-08T09:26:18;37.10;;;20.25;;
49460;SDS011;35355;49.198;-0.368;2024-03-08T09:28:44;36.75;;;19.25;;
49460;SDS011;35355;49.198;-0.368;2024-03-08T09:31:10;33.90;;;19.35;;
49460;SDS011;35355;49.198;-0.368;2024-03-08T09:33:36;34.67;;;19.38;;
49460;SDS011;35355;49.198;-0.368;2024-03-08T09:36:02;38.28;;;20.35;;
49460;SDS011;35355;49.198;-0.368;2024-03-08T09:38:28;38.92;;;19.88;;
49460;SDS011;35355;49.198;-0.368;2024-03-08T09:40:54;37.75;;;20.15;;
49460;SDS011;35355;49.198;-0.368;2024-03-08T09:43:21;36.63;;;18.98;;
49460;SDS011;35355;49.198;-0.368;2024-03-08T09:45:49;41.30;;;20.83;;
49460;SDS011;35355;49.198;-0.368;2024-03-08T09:48:16;40.67;;;20.70;;
49460;SDS011;35355;49.198;-0.368;2024-03-08T09:50:44;35.10;;;19.27;;
49460;SDS011;35355;49.198;-0.368;2024-03-08T09:53:11;36.70;;;20.00;;
49460;SDS011;35355;49.198;-0.368;2024-03-08T09:55:37;40.72;;;21.30;;
49460;SDS011;35355;49.198;-0.368;2024-03-08T09:58:07;36.30;;;20.05;;
49460;SDS011;35355;49.198;-0.368;2024-03-08T10:00:53;34.20;;;19.00;;
49460;SDS011;35355;49.198;-0.368;2024-03-08T10:03:19;37.47;;;19.42;;
49460;SDS011;35355;49.198;-0.368;2024-03-08T10:05:45;41.55;;;20.85;;
49460;SDS011;35355;49.198;-0.368;2024-03-08T10:08:11;37.15;;;19.25;;
49460;SDS011;35355;49.198;-0.368;2024-03-08T10:10:37;35.00;;;20.42;;
49460;SDS011;35355;49.198;-0.368;2024-03-08T10:13:05;40.67;;;19.75;;
49460;SDS011;35355;49.198;-0.368;2024-03-08T10:15:31;36.20;;;20.15;;
49460;SDS011;35355;49.198;-0.368;2024-03-08T10:17:59;33.55;;;18.60;;
49460;SDS011;35355;49.198;-0.368;2024-03-08T10:20:27;37.95;;;19.77;;
49460;SDS011;35355;49.198;-0.368;2024-03-08T10:22:58;33.28;;;18.58;;
49460;SDS011;35355;49.198;-0.368;2024-03-08T10:25:28;35.05;;;20.40;;
49460;SDS011;35355;49.198;-0.368;2024-03-08T10:27:55;39.00;;;20.02;;
49460;SDS011;35355;49.198;-0.368;2024-03-08T10:30:21;34.13;;;18.95;;
49460;SDS011;35355;49.198;-0.368;2024-03-08T10:32:47;32.40;;;19.05;;
49460;SDS011;35355;49.198;-0.368;2024-03-08T10:35:13;37.05;;;18.83;;
49460;SDS011;35355;49.198;-0.368;2024-03-08T10:40:16;36.03;;;19.17;;
49460;SDS011;35355;49.198;-0.368;2024-03-08T10:51:02;33.85;;;19.13;;
49460;SDS011;35355;49.198;-0.368;2024-03-08T10:53:28;37.05;;;19.38;;
49460;SDS011;35355;49.198;-0.368;2024-03-08T10:55:55;37.80;;;19.10;;
49460;SDS011;35355;49.198;-0.368;2024-03-08T10:58:22;37.80;;;18.67;;
49460;SDS011;35355;49.198;-0.368;2024-03-08T11:00:54;35.97;;;19.08;;
49460;SDS011;35355;49.198;-0.368;2024-03-08T11:08:31;30.17;;;16.52;;
49460;SDS011;35355;49.198;-0.368;2024-03-08T11:10:58;38.88;;;19.20;;
49460;SDS011;35355;49.198;-0.368;2024-03-08T11:16:13;36.03;;;18.35;;
49460;SDS011;35355;49.198;-0.368;2024-03-08T11:18:54;33.65;;;17.77;;
49460;SDS011;35355;49.198;-0.368;2024-03-08T11:21:20;32.78;;;16.95;;
49460;SDS011;35355;49.198;-0.368;2024-03-08T11:24:01;35.30;;;18.10;;
49460;SDS011;35355;49.198;-0.368;2024-03-08T11:26:30;33.30;;;17.35;;
49460;SDS011;35355;49.198;-0.368;2024-03-08T11:29:31;35.55;;;17.83;;
49460;SDS011;35355;49.198;-0.368;2024-03-08T11:34:53;30.63;;;17.98;;
49460;SDS011;35355;49.198;-0.368;2024-03-08T11:37:19;33.63;;;18.55;;
49460;SDS011;35355;49.198;-0.368;2024-03-08T11:39:49;30.52;;;18.20;;
49460;SDS011;35355;49.198;-0.368;2024-03-08T11:42:16;31.20;;;16.85;;
49460;SDS011;35355;49.198;-0.368;2024-03-08T11:44:47;30.77;;;16.63;;
49460;SDS011;35355;49.198;-0.368;2024-03-08T11:47:13;27.70;;;15.38;;
49460;SDS011;35355;49.198;-0.368;2024-03-08T11:49:41;28.35;;;16.45;;
49460;SDS011;35355;49.198;-0.368;2024-03-08T11:52:12;32.38;;;17.60;;
49460;SDS011;35355;49.198;-0.368;2024-03-08T11:54:38;29.63;;;16.27;;
49460;SDS011;35355;49.198;-0.368;2024-03-08T11:57:04;29.73;;;16.63;;
49460;SDS011;35355;49.198;-0.368;2024-03-08T11:59:29;30.15;;;16.15;;
49460;SDS011;35355;49.198;-0.368;2024-03-08T12:02:05;32.65;;;17.90;;
49460;SDS011;35355;49.198;-0.368;2024-03-08T12:04:31;28.75;;;15.30;;
49460;SDS011;35355;49.198;-0.368;2024-03-08T12:07:00;28.77;;;16.17;;
49460;SDS011;35355;49.198;-0.368;2024-03-08T12:09:33;28.85;;;16.17;;
49460;SDS011;35355;49.198;-0.368;2024-03-08T12:12:01;27.20;;;15.32;;
49460;SDS011;35355;49.198;-0.368;2024-03-08T12:14:28;29.15;;;15.60;;
49460;SDS011;35355;49.198;-0.368;2024-03-08T12:16:53;27.35;;;15.77;;
49460;SDS011;35355;49.198;-0.368;2024-03-08T12:19:19;29.85;;;14.63;;
49460;SDS011;35355;49.198;-0.368;2024-03-08T12:21:44;28.98;;;15.80;;
49460;SDS011;35355;49.198;-0.368;2024-03-08T12:24:16;27.50;;;15.65;;
49460;SDS011;35355;49.198;-0.368;2024-03-08T12:26:45;27.02;;;15.10;;
49460;SDS011;35355;49.198;-0.368;2024-03-08T12:31:42;28.27;;;15.52;;
49460;SDS011;35355;49.198;-0.368;2024-03-08T12:34:08;27.98;;;15.90;;
49460;SDS011;35355;49.198;-0.368;2024-03-08T12:36:34;27.90;;;14.73;;
49460;SDS011;35355;49.198;-0.368;2024-03-08T12:39:01;26.90;;;14.85;;
49460;SDS011;35355;49.198;-0.368;2024-03-08T12:41:29;31.90;;;15.70;;
49460;SDS011;35355;49.198;-0.368;2024-03-08T12:43:54;26.27;;;14.55;;
49460;SDS011;35355;49.198;-0.368;2024-03-08T12:46:21;24.27;;;13.48;;
49460;SDS011;35355;49.198;-0.368;2024-03-08T12:48:47;30.33;;;15.23;;
49460;SDS011;35355;49.198;-0.368;2024-03-08T12:51:13;24.30;;;14.07;;
49460;SDS011;35355;49.198;-0.368;2024-03-08T12:53:43;27.02;;;14.80;;
49460;SDS011;35355;49.198;-0.368;2024-03-08T12:56:09;25.42;;;14.25;;
49460;SDS011;35355;49.198;-0.368;2024-03-08T12:58:35;25.48;;;13.80;;
49460;SDS011;35355;49.198;-0.368;2024-03-08T13:01:02;24.98;;;14.07;;
49460;SDS011;35355;49.198;-0.368;2024-03-08T13:03:32;28.08;;;15.07;;
49460;SDS011;35355;49.198;-0.368;2024-03-08T13:06:01;25.58;;;14.02;;
49460;SDS011;35355;49.198;-0.368;2024-03-08T13:08:28;30.70;;;15.80;;
49460;SDS011;35355;49.198;-0.368;2024-03-08T13:10:56;29.08;;;14.80;;
49460;SDS011;35355;49.198;-0.368;2024-03-08T13:13:21;26.50;;;13.63;;
49460;SDS011;35355;49.198;-0.368;2024-03-08T13:15:47;24.45;;;13.68;;
49460;SDS011;35355;49.198;-0.368;2024-03-08T13:18:13;31.23;;;15.88;;
49460;SDS011;35355;49.198;-0.368;2024-03-08T13:20:40;26.10;;;12.93;;
49460;SDS011;35355;49.198;-0.368;2024-03-08T13:23:08;26.95;;;13.63;;
49460;SDS011;35355;49.198;-0.368;2024-03-08T13:25:34;22.33;;;12.13;;
49460;SDS011;35355;49.198;-0.368;2024-03-08T13:27:59;29.75;;;14.43;;
49460;SDS011;35355;49.198;-0.368;2024-03-08T13:30:26;25.67;;;14.00;;
49460;SDS011;35355;49.198;-0.368;2024-03-08T13:32:54;20.50;;;12.20;;
49460;SDS011;35355;49.198;-0.368;2024-03-08T13:35:20;24.08;;;12.63;;
49460;SDS011;35355;49.198;-0.368;2024-03-08T13:37:50;19.23;;;11.13;;
49460;SDS011;35355;49.198;-0.368;2024-03-08T13:40:16;24.30;;;11.55;;
49460;SDS011;35355;49.198;-0.368;2024-03-08T13:42:48;20.45;;;10.90;;
49460;SDS011;35355;49.198;-0.368;2024-03-08T13:45:14;16.65;;;10.05;;
49460;SDS011;35355;49.198;-0.368;2024-03-08T13:47:42;21.30;;;11.23;;
49460;SDS011;35355;49.198;-0.368;2024-03-08T13:50:09;21.90;;;11.98;;
49460;SDS011;35355;49.198;-0.368;2024-03-08T13:52:39;20.92;;;11.57;;
49460;SDS011;35355;49.198;-0.368;2024-03-08T13:55:05;23.40;;;12.35;;
49460;SDS011;35355;49.198;-0.368;2024-03-08T13:57:31;22.80;;;11.45;;
49460;SDS011;35355;49.198;-0.368;2024-03-08T13:59:57;19.80;;;11.23;;
49460;SDS011;35355;49.198;-0.368;2024-03-08T14:02:23;23.58;;;11.95;;
49460;SDS011;35355;49.198;-0.368;2024-03-08T14:04:53;20.27;;;12.00;;
49460;SDS011;35355;49.198;-0.368;2024-03-08T14:07:21;23.35;;;12.35;;
49460;SDS011;35355;49.198;-0.368;2024-03-08T14:09:48;20.00;;;9.98;;
49460;SDS011;35355;49.198;-0.368;2024-03-08T14:12:14;18.52;;;10.85;;
49460;SDS011;35355;49.198;-0.368;2024-03-08T14:14:40;19.50;;;11.15;;
49460;SDS011;35355;49.198;-0.368;2024-03-08T14:17:07;22.27;;;11.48;;
49460;SDS011;35355;49.198;-0.368;2024-03-08T14:19:34;19.33;;;10.15;;
49460;SDS011;35355;49.198;-0.368;2024-03-08T14:22:00;22.13;;;9.85;;
49460;SDS011;35355;49.198;-0.368;2024-03-08T14:24:29;18.33;;;9.75;;
49460;SDS011;35355;49.198;-0.368;2024-03-08T14:26:55;17.05;;;10.52;;
49460;SDS011;35355;49.198;-0.368;2024-03-08T14:29:20;20.10;;;10.52;;